Time;durP1;ratioP1;P1;durP2;ratioP2;P2;SDS_P1;SDS_P2;PMS_P1;PMS_P2;Temp;Humidity;BMP_temperature;BMP_pressure;BME280_temperature;BME280_humidity;BME280_pressure;Samples;Min_cycle;Max_cycle;Signal;HPM_P1;HPM_P2
2022/12/03 00:00:45;;;;;;;24.63;22.52;;;;;;;1.00;100.00;102263.47;5127062;29;20023;-65
2022/12/03 00:03:15;;;;;;;24.52;21.88;;;;;;;0.98;100.00;102256.66;5125807;28;20023;-65
2022/12/03 00:05:46;;;;;;;30.40;24.27;;;;;;;1.15;100.00;102277.03;5125974;29;20019;-65
2022/12/03 00:08:16;;;;;;;26.50;24.13;;;;;;;1.15;100.00;102277.03;5126484;29;20033;-65
2022/12/03 00:10:46;;;;;;;23.55;21.38;;;;;;;1.14;100.00;102274.53;5126072;29;20415;-65
2022/12/03 00:13:17;;;;;;;23.08;20.95;;;;;;;1.14;100.00;102269.19;5108038;29;20027;-65
2022/12/03 00:15:47;;;;;;;25.55;23.15;;;;;;;1.14;100.00;102267.38;5125737;29;20038;-65
2022/12/03 00:18:18;;;;;;;28.52;25.92;;;;;;;1.16;100.00;102272.50;5125894;29;20106;-65
2022/12/03 00:20:48;;;;;;;24.73;22.30;;;;;;;1.12;100.00;102266.69;5108532;29;20126;-65
2022/12/03 00:23:18;;;;;;;24.73;22.05;;;;;;;1.10;100.00;102258.03;5125295;28;20034;-65
2022/12/03 00:25:49;;;;;;;26.45;23.80;;;;;;;1.08;100.00;102253.88;5125556;29;20571;-64
2022/12/03 00:28:19;;;;;;;29.48;25.58;;;;;;;1.10;100.00;102263.38;5125208;28;20035;-65
2022/12/03 00:30:52;;;;;;;25.80;23.27;;;;;;;1.11;100.00;102261.53;5125311;29;20065;-65
2022/12/03 00:33:23;;;;;;;25.55;23.05;;;;;;;1.09;100.00;102259.03;5124914;28;20480;-65
2022/12/03 00:35:53;;;;;;;26.00;23.75;;;;;;;1.06;100.00;102254.03;5125462;29;20023;-65
2022/12/03 00:38:23;;;;;;;24.58;21.77;;;;;;;1.07;100.00;102245.06;5108249;29;20495;-64
2022/12/03 00:40:54;;;;;;;24.77;22.60;;;;;;;1.08;100.00;102251.22;5108165;29;20058;-65
2022/12/03 00:43:24;;;;;;;24.92;23.05;;;;;;;0.98;100.00;102246.00;5139524;23;20067;-67
2022/12/03 00:45:55;;;;;;;24.40;22.10;;;;;;;1.06;100.00;102248.72;5124286;29;20081;-66
2022/12/03 00:48:25;;;;;;;25.50;23.50;;;;;;;1.07;100.00;102246.88;5124969;29;20020;-66
2022/12/03 00:50:55;;;;;;;26.08;23.38;;;;;;;1.08;100.00;102256.53;5107541;29;20023;-70
2022/12/03 00:53:26;;;;;;;27.23;24.60;;;;;;;1.08;100.00;102251.22;5124267;28;20479;-67
2022/12/03 00:55:57;;;;;;;24.58;22.08;;;;;;;1.08;100.00;102252.06;5124737;29;20039;-65
2022/12/03 00:58:27;;;;;;;30.10;23.67;;;;;;;1.10;100.00;102268.69;5140474;23;20100;-63
2022/12/03 01:00:57;;;;;;;23.92;21.38;;;;;;;1.05;100.00;102247.03;5116314;29;20492;-63
2022/12/03 01:03:28;;;;;;;26.58;24.13;;;;;;;1.06;100.00;102248.72;5125267;28;20058;-62
2022/12/03 01:05:58;;;;;;;27.17;24.75;;;;;;;1.00;100.00;102252.00;5125444;29;20027;-65
2022/12/03 01:08:29;;;;;;;25.05;22.90;;;;;;;1.06;100.00;102258.53;5125297;29;20128;-67
2022/12/03 01:10:59;;;;;;;26.33;23.55;;;;;;;1.06;100.00;102247.88;5125504;29;20463;-63
2022/12/03 01:13:30;;;;;;;27.08;24.42;;;;;;;1.06;100.00;102256.69;5145072;23;20487;-69
2022/12/03 01:16:00;;;;;;;25.20;22.70;;;;;;;1.07;100.00;102244.22;5136398;28;20418;-67
2022/12/03 01:18:30;;;;;;;29.20;26.20;;;;;;;0.76;100.00;102206.69;5135969;29;20051;-69
2022/12/03 01:21:01;;;;;;;25.58;22.95;;;;;;;0.79;100.00;102201.88;5136930;29;20037;-69
2022/12/03 01:23:31;;;;;;;28.63;25.63;;;;;;;1.08;100.00;102241.41;5136301;28;20038;-66
2022/12/03 01:26:02;;;;;;;26.48;22.92;;;;;;;1.08;100.00;102244.06;5134569;29;20035;-65
2022/12/03 01:28:33;;;;;;;26.17;23.75;;;;;;;1.07;100.00;102244.22;5137141;29;20026;-66
2022/12/03 01:33:52;;;;;;;27.05;24.35;;;;;;;0.94;100.00;102226.03;5135683;28;20042;-66
2022/12/03 01:36:22;;;;;;;24.00;21.63;;;;;;;1.08;100.00;102240.56;5120014;29;20083;-68
2022/12/03 01:38:53;;;;;;;25.70;22.77;;;;;;;0.78;100.00;102191.41;5131429;28;20057;-68
2022/12/03 01:41:24;;;;;;;25.55;23.25;;;;;;;0.97;100.00;102217.75;5130936;29;20038;-68
2022/12/03 01:43:56;;;;;;;24.13;21.73;;;;;;;0.44;100.00;102168.31;5132024;28;20028;-67
2022/12/03 01:46:47;;;;;;;29.00;26.45;;;;;;;1.04;100.00;102239.22;5132105;29;20023;-67
2022/12/03 01:49:21;;;;;;;28.45;25.95;;;;;;;0.72;100.00;102192.88;5131425;29;20035;-68
2022/12/03 01:51:53;;;;;;;26.98;24.27;;;;;;;0.83;100.00;102202.41;5130706;29;20535;-66
2022/12/03 01:54:34;;;;;;;25.48;22.08;;;;;;;0.59;100.00;102174.69;5131307;28;20403;-67
2022/12/03 01:57:21;;;;;;;28.88;25.77;;;;;;;0.94;100.00;102253.47;5131588;29;20035;-65
2022/12/03 01:59:54;;;;;;;24.73;22.25;;;;;;;1.04;100.00;102234.72;5114310;29;20419;-68
2022/12/03 02:02:28;;;;;;;24.60;22.23;;;;;;;1.03;100.00;102230.41;5131815;29;20035;-68
2022/12/03 02:04:59;;;;;;;25.80;22.30;;;;;;;1.05;100.00;102244.38;5132745;28;20027;-69
2022/12/03 02:07:32;;;;;;;27.80;25.30;;;;;;;1.05;100.00;102239.06;5115556;29;20030;-65
2022/12/03 02:10:03;;;;;;;28.55;25.92;;;;;;;0.78;100.00;102202.88;5132082;29;20023;-67
2022/12/03 02:12:40;;;;;;;29.98;27.02;;;;;;;0.80;100.00;102194.75;5132791;29;20038;-69
2022/12/03 02:15:11;;;;;;;25.50;23.25;;;;;;;0.91;100.00;102213.06;5136374;29;20031;-68
2022/12/03 02:17:42;;;;;;;26.30;23.92;;;;;;;0.99;100.00;102216.59;5120640;29;20039;-68
2022/12/03 02:20:13;;;;;;;25.23;22.65;;;;;;;0.88;100.00;102206.22;5120211;29;20034;-66
2022/12/03 02:23:09;;;;;;;25.75;23.10;;;;;;;1.08;100.00;102235.25;5103890;28;20027;-67
2022/12/03 02:25:39;;;;;;;29.92;26.85;;;;;;;0.85;100.00;102197.75;5138582;29;20027;-70
2022/12/03 02:28:10;;;;;;;26.52;24.02;;;;;;;1.08;100.00;102232.59;5136359;29;20480;-68
2022/12/03 02:30:40;;;;;;;29.67;26.88;;;;;;;-1.00;100.00;101894.66;5160421;23;20055;-93
2022/12/03 02:33:11;;;;;;;27.98;24.85;;;;;;;-0.07;100.00;102039.84;5137368;28;20027;-93
2022/12/03 02:35:42;;;;;;;28.30;25.65;;;;;;;1.08;100.00;102252.06;5141423;29;20051;-92
2022/12/03 02:38:21;;;;;;;26.48;24.20;;;;;;;0.22;100.00;102094.47;5144223;29;20030;-92
2022/12/03 02:40:56;;;;;;;26.60;23.85;;;;;;;1.04;100.00;102215.28;5141212;29;20062;-93
2022/12/03 02:43:33;;;;;;;29.90;26.92;;;;;;;0.49;100.00;102122.66;5139646;28;20015;-92
2022/12/03 02:46:05;;;;;;;28.08;25.33;;;;;;;1.00;100.00;102223.56;5139178;29;20023;-93
2022/12/03 02:48:39;;;;;;;26.05;23.30;;;;;;;1.09;100.00;102227.13;5141343;28;20151;-92
2022/12/03 02:51:10;;;;;;;28.02;25.05;;;;;;;-0.95;100.00;101903.00;5150725;28;20015;-92
2022/12/03 02:53:47;;;;;;;26.20;23.73;;;;;;;-1.10;100.00;101862.94;5153955;28;20075;-93
2022/12/03 02:56:21;;;;;;;26.20;23.40;;;;;;;0.22;100.00;102083.84;5154119;28;20015;-92
2022/12/03 02:58:57;;;;;;;26.40;23.88;;;;;;;-0.99;100.00;101875.13;5155121;28;20038;-92
2022/12/03 03:01:27;;;;;;;26.40;24.05;;;;;;;1.08;100.00;102213.97;5150644;28;20027;-93
2022/12/03 03:04:01;;;;;;;28.15;25.35;;;;;;;0.65;100.00;102142.16;5132402;28;20037;-92
2022/12/03 03:06:32;;;;;;;28.25;25.48;;;;;;;-0.26;100.00;102002.06;5133013;29;20031;-92
2022/12/03 03:09:03;;;;;;;29.40;26.85;;;;;;;-0.38;100.00;102009.47;5133184;28;20106;-92
2022/12/03 03:11:33;;;;;;;27.77;24.88;;;;;;;0.14;100.00;102065.19;5132911;29;20030;-93
2022/12/03 03:14:04;;;;;;;29.90;26.73;;;;;;;0.83;100.00;102200.56;5130966;28;20470;-92
2022/12/03 03:16:34;;;;;;;28.50;25.45;;;;;;;0.40;100.00;102121.78;5133738;28;20019;-92
2022/12/03 03:19:05;;;;;;;26.90;24.42;;;;;;;1.05;100.00;102235.56;5132455;29;20031;-92
2022/12/03 03:21:35;;;;;;;27.65;25.02;;;;;;;1.04;100.00;102212.63;5131050;29;20094;-91
2022/12/03 03:24:06;;;;;;;30.33;27.58;;;;;;;0.28;100.00;102125.72;5131030;28;20432;-93
2022/12/03 03:26:36;;;;;;;26.15;23.38;;;;;;;0.15;100.00;102074.81;5132919;29;20030;-92
2022/12/03 03:29:07;;;;;;;30.70;26.38;;;;;;;-1.28;100.00;101853.38;5132340;29;20041;-92
2022/12/03 03:31:39;;;;;;;28.63;25.85;;;;;;;1.02;100.00;102236.72;5133544;29;20518;-92
2022/12/03 03:34:10;;;;;;;27.60;24.98;;;;;;;0.82;100.00;102171.47;5130632;28;20034;-92
2022/12/03 03:36:41;;;;;;;25.35;22.90;;;;;;;-1.09;100.00;101909.69;5132881;28;20026;-93
2022/12/03 03:39:12;;;;;;;25.15;22.95;;;;;;;-1.20;100.00;101861.41;5132798;28;20106;-94
2022/12/03 03:41:45;;;;;;;27.95;25.08;;;;;;;-1.09;100.00;101872.56;5132896;29;20480;-94
2022/12/03 03:44:19;;;;;;;28.75;25.90;;;;;;;0.91;100.00;102219.19;5134875;29;20031;-93
2022/12/03 03:46:53;;;;;;;26.83;24.05;;;;;;;-0.91;100.00;101888.44;5135449;29;20034;-93
2022/12/03 03:49:23;;;;;;;29.67;25.40;;;;;;;0.42;100.00;102150.84;5131947;29;20027;-93
2022/12/03 03:51:54;;;;;;;27.63;25.13;;;;;;;-0.30;100.00;101983.00;5134418;28;20037;-92
2022/12/03 03:54:25;;;;;;;28.58;25.98;;;;;;;1.00;100.00;102212.94;5134744;29;20090;-93
2022/12/03 03:56:56;;;;;;;28.42;25.67;;;;;;;-0.57;100.00;101945.97;5132461;29;20015;-93
2022/12/03 03:59:28;;;;;;;32.67;29.35;;;;;;;0.47;100.00;102133.44;5132523;28;20020;-90
2022/12/03 04:01:58;;;;;;;29.65;26.92;;;;;;;0.96;100.00;102178.84;5130115;28;20023;-94
2022/12/03 04:04:35;;;;;;;29.00;26.15;;;;;;;-0.20;100.00;102015.53;5136486;28;20041;-93
2022/12/03 04:07:05;;;;;;;30.70;26.55;;;;;;;0.97;100.00;102197.28;5151142;28;20051;-93
2022/12/03 04:09:36;;;;;;;29.00;26.15;;;;;;;0.79;100.00;102175.28;5131161;29;20126;-91
2022/12/03 04:14:55;;;;;;;29.88;26.90;;;;;;;0.16;100.00;102057.91;5132311;29;20057;-91
2022/12/03 04:17:26;;;;;;;34.08;30.55;;;;;;;1.02;100.00;102184.34;5132085;28;20362;-91
2022/12/03 04:19:56;;;;;;;26.65;24.20;;;;;;;0.98;100.00;102176.84;5129815;28;20034;-91
2022/12/03 04:22:38;;;;;;;29.65;26.85;;;;;;;1.04;100.00;102194.84;5130178;28;20117;-91
2022/12/03 04:30:48;;;;;;;27.90;25.15;;;;;;;0.38;100.00;102125.56;5131396;29;20045;-91
2022/12/03 04:36:07;;;;;;;29.80;26.67;;;;;;;0.84;100.00;102161.53;5132512;29;20122;-93
2022/12/03 04:38:38;;;;;;;33.60;30.23;;;;;;;0.25;100.00;102089.66;5132181;29;20031;-91
2022/12/03 04:41:08;;;;;;;32.33;29.13;;;;;;;-0.92;100.00;101885.94;5134446;29;20051;-92
2022/12/03 04:44:32;;;;;;;32.42;28.02;;;;;;;0.55;100.00;102146.78;5134939;28;20019;-92
2022/12/03 04:46:29;;;;;;;28.08;25.45;;;;;;;0.54;100.00;102093.78;5135565;29;20394;-91
2022/12/03 04:48:59;;;;;;;29.60;26.98;;;;;;;0.60;100.00;102101.91;5134399;29;20082;-92
2022/12/03 04:51:30;;;;;;;28.02;25.25;;;;;;;0.67;100.00;102115.41;5135160;29;20029;-91
2022/12/03 04:54:00;;;;;;;31.30;27.98;;;;;;;1.04;100.00;102176.22;5138585;29;20034;-92
2022/12/03 04:56:31;;;;;;;29.02;26.23;;;;;;;0.98;100.00;102172.38;5138453;28;20030;-93
2022/12/03 04:59:01;;;;;;;31.52;28.58;;;;;;;0.94;100.00;102164.88;5130014;29;20031;-92
2022/12/03 05:01:31;;;;;;;32.42;29.30;;;;;;;0.47;100.00;102092.75;5129338;29;20027;-92
2022/12/03 05:04:02;;;;;;;31.90;28.20;;;;;;;0.32;100.00;102055.31;5130416;28;20596;-92
2022/12/03 05:06:32;;;;;;;31.88;26.52;;;;;;;0.67;100.00;102121.56;5131362;29;20485;-92
2022/12/03 05:09:03;;;;;;;30.95;27.90;;;;;;;-0.34;100.00;101971.03;5130062;29;20499;-92
2022/12/03 05:11:34;;;;;;;30.10;27.35;;;;;;;1.01;100.00;102181.84;5147053;28;20011;-91
2022/12/03 05:14:04;;;;;;;36.13;29.88;;;;;;;0.21;100.00;102050.28;5151078;28;20027;-91
2022/12/03 05:16:35;;;;;;;31.75;28.40;;;;;;;-0.56;100.00;101921.13;5150854;28;20035;-92
2022/12/03 05:19:07;;;;;;;34.35;29.98;;;;;;;0.14;100.00;102014.72;5146426;29;20073;-90
2022/12/03 05:21:37;;;;;;;33.40;29.30;;;;;;;0.19;100.00;102042.47;5129334;29;20095;-91
2022/12/03 05:24:07;;;;;;;36.00;31.95;;;;;;;0.26;100.00;102048.81;5129840;28;20031;-92
2022/12/03 05:26:38;;;;;;;29.35;26.83;;;;;;;0.22;100.00;102025.38;5129520;29;20539;-92
2022/12/03 05:29:08;;;;;;;31.58;28.17;;;;;;;0.34;100.00;102048.84;5129532;29;20023;-91
2022/12/03 05:31:38;;;;;;;31.08;27.85;;;;;;;-0.23;100.00;101944.19;5129281;29;20404;-92
2022/12/03 05:34:09;;;;;;;33.65;30.48;;;;;;;-0.56;100.00;101931.72;5128235;28;20489;-92
2022/12/03 05:36:39;;;;;;;35.80;28.83;;;;;;;0.19;100.00;102031.84;5112705;29;20449;-91
2022/12/03 05:39:10;;;;;;;32.95;30.08;;;;;;;0.37;100.00;102046.84;5112020;29;20035;-91
2022/12/03 05:44:29;;;;;;;29.77;27.00;;;;;;;0.78;100.00;102132.91;5130287;29;20079;-91
2022/12/03 05:46:59;;;;;;;34.17;30.88;;;;;;;1.00;100.00;102135.81;5112015;29;20019;-92
2022/12/03 05:49:30;;;;;;;30.42;27.38;;;;;;;0.78;100.00;102122.28;5112419;29;20042;-91
2022/12/03 05:52:00;;;;;;;31.35;27.90;;;;;;;0.52;100.00;102071.84;5111760;28;20077;-91
2022/12/03 05:54:30;;;;;;;39.13;35.00;;;;;;;0.03;100.00;101970.69;5111961;29;20064;-92
2022/12/03 05:57:01;;;;;;;32.60;29.27;;;;;;;-0.91;100.00;101840.72;5113640;29;20023;-93
2022/12/03 05:59:31;;;;;;;32.80;29.42;;;;;;;1.03;100.00;102147.94;5114676;29;20129;-91
2022/12/03 06:02:05;;;;;;;33.78;30.40;;;;;;;-0.37;100.00;101919.09;5131977;28;20444;-91
2022/12/03 06:04:35;;;;;;;31.30;28.08;;;;;;;-1.39;100.00;101746.66;5132591;29;20031;-93
2022/12/03 06:07:06;;;;;;;33.05;29.70;;;;;;;0.33;100.00;102025.09;5115914;29;20023;-91
2022/12/03 06:09:36;;;;;;;34.20;30.63;;;;;;;-1.25;100.00;101779.72;5116220;29;20027;-92
2022/12/03 06:12:10;;;;;;;28.92;25.98;;;;;;;0.39;100.00;102052.84;5120884;28;20027;-93
2022/12/03 06:14:40;;;;;;;33.33;29.98;;;;;;;0.16;100.00;101988.84;5116933;29;20019;-92
2022/12/03 06:17:10;;;;;;;32.75;29.45;;;;;;;0.20;100.00;102006.13;5114471;29;20485;-91
2022/12/03 06:19:41;;;;;;;37.13;33.38;;;;;;;0.97;100.00;102125.47;5111902;29;20039;-91
2022/12/03 06:22:11;;;;;;;33.70;30.50;;;;;;;1.06;100.00;102158.28;5110856;28;20020;-92
2022/12/03 06:24:45;;;;;;;32.38;29.15;;;;;;;0.68;100.00;102096.66;5127043;29;20023;-91
2022/12/03 06:27:16;;;;;;;37.17;33.17;;;;;;;0.91;100.00;102138.59;5113412;29;20496;-92
2022/12/03 06:29:46;;;;;;;35.00;31.45;;;;;;;0.90;100.00;102118.31;5115463;29;20031;-92
2022/12/03 06:32:16;;;;;;;32.72;29.30;;;;;;;0.85;100.00;102118.00;5132041;28;20051;-93
2022/12/03 06:34:47;;;;;;;32.28;29.08;;;;;;;-0.36;100.00;101899.53;5130256;28;20030;-92
2022/12/03 06:37:17;;;;;;;33.22;29.83;;;;;;;0.42;100.00;102031.28;5114865;29;20043;-91
2022/12/03 06:39:48;;;;;;;35.30;31.40;;;;;;;-0.21;100.00;101944.88;5114798;29;20027;-90
2022/12/03 06:42:18;;;;;;;32.53;29.17;;;;;;;-0.20;100.00;101962.47;5132134;28;20374;-91
2022/12/03 06:44:48;;;;;;;38.70;34.53;;;;;;;0.64;100.00;102087.31;5114925;29;20051;-91
2022/12/03 06:47:19;;;;;;;35.63;31.85;;;;;;;0.62;100.00;102085.81;5114208;29;20019;-92
2022/12/03 06:49:49;;;;;;;35.42;31.88;;;;;;;0.56;100.00;102079.34;5129977;29;20019;-90
2022/12/03 06:52:20;;;;;;;34.92;31.50;;;;;;;0.47;100.00;102048.41;5130639;28;20059;-90
2022/12/03 06:54:50;;;;;;;35.25;31.58;;;;;;;0.70;100.00;102093.81;5114689;29;20027;-91
2022/12/03 06:57:20;;;;;;;39.38;31.38;;;;;;;0.58;100.00;102066.69;5131357;29;20031;-91
2022/12/03 06:59:51;;;;;;;37.42;33.63;;;;;;;0.87;100.00;102135.41;5128930;29;20027;-91
2022/12/03 07:02:21;;;;;;;33.03;29.67;;;;;;;0.71;100.00;102100.81;5112298;29;20086;-90
2022/12/03 07:04:51;;;;;;;32.75;29.63;;;;;;;0.58;100.00;102074.66;5129134;29;20027;-92
2022/12/03 07:07:22;;;;;;;35.05;31.63;;;;;;;0.41;100.00;102042.88;5131943;29;20524;-92
2022/12/03 07:09:52;;;;;;;33.35;30.08;;;;;;;1.11;100.00;102140.00;5113296;29;20048;-92
2022/12/03 07:14:55;;;;;;;33.75;28.63;;;;;;;1.09;100.00;102136.66;5141247;23;20058;-66
2022/12/03 07:17:26;;;;;;;34.90;31.58;;;;;;;1.11;100.00;102145.31;5124985;29;20031;-63
2022/12/03 07:19:56;;;;;;;37.45;33.60;;;;;;;1.07;100.00;102133.34;5127245;29;20399;-63
2022/12/03 07:22:27;;;;;;;36.13;29.77;;;;;;;1.12;100.00;102141.66;5126833;29;20052;-63
2022/12/03 07:24:57;;;;;;;36.53;32.78;;;;;;;1.09;100.00;102135.84;5127273;28;20027;-66
2022/12/03 07:27:27;;;;;;;38.95;35.03;;;;;;;1.10;100.00;102140.16;5126998;29;20023;-66
2022/12/03 07:29:58;;;;;;;33.30;29.95;;;;;;;1.10;100.00;102135.66;5126969;29;20019;-64
2022/12/03 07:32:28;;;;;;;42.30;34.67;;;;;;;1.11;100.00;102134.69;5126615;29;20102;-64
2022/12/03 07:34:59;;;;;;;38.03;34.05;;;;;;;1.12;100.00;102144.31;5126630;28;20050;-64
2022/12/03 07:37:30;;;;;;;40.90;33.78;;;;;;;1.13;100.00;102143.34;5125757;28;20535;-64
2022/12/03 07:40:00;;;;;;;33.70;30.15;;;;;;;1.11;100.00;102134.69;5126585;29;20027;-65
2022/12/03 07:42:31;;;;;;;43.20;33.60;;;;;;;1.14;100.00;102134.34;5126391;29;20110;-64
2022/12/03 07:45:02;;;;;;;36.17;32.30;;;;;;;1.12;100.00;102120.38;5126361;28;20122;-62
2022/12/03 07:47:33;;;;;;;37.40;33.20;;;;;;;1.15;100.00;102129.88;5126759;29;20023;-64
2022/12/03 07:50:03;;;;;;;33.88;30.60;;;;;;;1.15;100.00;102132.53;5109193;29;20479;-66
2022/12/03 07:52:34;;;;;;;42.97;35.28;;;;;;;1.08;100.00;102124.34;5126091;29;20367;-65
2022/12/03 07:55:05;;;;;;;37.50;31.52;;;;;;;1.02;100.00;102114.38;5126120;28;20031;-64
2022/12/03 07:57:35;;;;;;;36.63;32.70;;;;;;;1.13;100.00;102126.53;5126302;29;20024;-64
2022/12/03 08:00:06;;;;;;;36.13;32.35;;;;;;;0.93;100.00;102107.34;5126053;29;20509;-64
2022/12/03 08:02:37;;;;;;;39.40;33.65;;;;;;;1.12;100.00;102132.84;5124220;28;20365;-65
2022/12/03 08:05:07;;;;;;;39.25;35.15;;;;;;;1.01;100.00;102110.03;5108408;29;20034;-66
2022/12/03 08:07:38;;;;;;;37.00;32.78;;;;;;;1.03;100.00;102108.06;5125966;29;20019;-65
2022/12/03 08:10:08;;;;;;;38.17;34.15;;;;;;;1.19;100.00;102129.34;5125698;29;20052;-64
2022/12/03 08:12:39;;;;;;;45.83;36.55;;;;;;;1.19;100.00;102129.34;5124907;28;20035;-63
2022/12/03 08:15:24;;;;;;;36.45;32.72;;;;;;;1.21;100.00;102130.03;5125323;29;20043;-64
2022/12/03 08:17:59;;;;;;;42.95;36.75;;;;;;;1.22;100.00;102134.34;5108490;29;20085;-64
2022/12/03 08:20:36;;;;;;;41.08;36.55;;;;;;;1.29;100.00;102130.03;5126076;29;20259;-64
2022/12/03 08:23:15;;;;;;;39.03;33.50;;;;;;;1.33;100.00;102136.72;5124853;28;20078;-64
2022/12/03 08:25:45;;;;;;;36.80;33.08;;;;;;;1.33;100.00;102142.03;5125619;29;20043;-65
2022/12/03 08:28:17;;;;;;;35.13;31.42;;;;;;;1.34;100.00;102141.03;5125529;29;20031;-64
2022/12/03 08:31:18;;;;;;;42.80;31.88;;;;;;;1.41;100.00;102143.06;5125514;29;20058;-62
2022/12/03 08:33:51;;;;;;;35.67;32.17;;;;;;;1.44;100.00;102143.56;5124307;28;20590;-64
2022/12/03 08:36:24;;;;;;;35.47;31.65;;;;;;;1.43;100.00;102141.06;5125724;29;20089;-64
2022/12/03 08:39:13;;;;;;;36.72;32.55;;;;;;;1.41;100.00;102135.91;5125317;29;20035;-64
2022/12/03 08:44:39;;;;;;;45.42;33.30;;;;;;;1.35;100.00;102136.53;5125354;28;20106;-65
2022/12/03 08:47:17;;;;;;;46.60;34.42;;;;;;;1.43;100.00;102143.72;5125071;29;20027;-65
2022/12/03 08:49:56;;;;;;;38.42;34.72;;;;;;;1.42;100.00;102139.38;5124785;28;20027;-65
2022/12/03 08:52:32;;;;;;;36.50;29.33;;;;;;;1.32;100.00;102119.06;5124331;29;20035;-64
2022/12/03 08:55:35;;;;;;;33.88;30.25;;;;;;;1.45;100.00;102139.03;5124949;28;20110;-64
2022/12/03 08:58:21;;;;;;;32.45;29.02;;;;;;;1.46;100.00;102138.88;5125059;29;20058;-65
2022/12/03 09:00:57;;;;;;;35.28;31.75;;;;;;;1.47;100.00;102148.53;5124507;29;20031;-66
2022/12/03 09:03:30;;;;;;;34.58;31.20;;;;;;;1.48;100.00;102141.38;5124194;28;20055;-64
2022/12/03 09:06:00;;;;;;;35.40;31.85;;;;;;;1.47;100.00;102147.69;5124970;29;20082;-67
2022/12/03 09:08:30;;;;;;;32.35;28.20;;;;;;;1.45;100.00;102145.19;5124989;29;20027;-65
2022/12/03 09:11:01;;;;;;;32.58;29.48;;;;;;;1.46;100.00;102148.69;5124782;29;20046;-65
2022/12/03 09:13:31;;;;;;;32.42;28.80;;;;;;;1.49;100.00;102148.34;5123401;28;20442;-65
2022/12/03 09:16:02;;;;;;;33.08;29.55;;;;;;;1.47;100.00;102148.53;5124491;29;20114;-65
2022/12/03 09:18:32;;;;;;;32.83;29.10;;;;;;;1.46;100.00;102144.19;5124403;29;20090;-65
2022/12/03 09:21:03;;;;;;;36.65;30.27;;;;;;;1.45;100.00;102131.03;5107320;29;20114;-67
2022/12/03 09:23:33;;;;;;;34.50;31.00;;;;;;;1.54;100.00;102146.88;5123746;28;20476;-66
2022/12/03 09:26:04;;;;;;;31.23;27.17;;;;;;;1.60;100.00;102138.22;5124375;29;20023;-66
2022/12/03 09:28:34;;;;;;;32.90;29.55;;;;;;;1.49;100.00;102114.59;5124173;29;20023;-65
2022/12/03 09:31:05;;;;;;;36.42;32.85;;;;;;;1.67;100.00;102125.94;5124539;29;20019;-63
2022/12/03 09:33:35;;;;;;;35.70;31.88;;;;;;;1.68;100.00;102130.25;5123495;28;20083;-63
2022/12/03 09:36:05;;;;;;;41.05;32.72;;;;;;;1.68;100.00;102126.75;5124185;29;20061;-63
2022/12/03 09:38:51;;;;;;;36.05;32.10;;;;;;;1.71;100.00;102131.75;5092475;29;20423;-63
2022/12/03 09:41:22;;;;;;;41.75;32.90;;;;;;;1.69;100.00;102128.44;5124123;29;20114;-64
2022/12/03 09:43:53;;;;;;;34.75;31.33;;;;;;;1.53;100.00;102107.94;5123646;28;20475;-63
2022/12/03 09:46:24;;;;;;;32.53;29.30;;;;;;;1.68;100.00;102126.75;5106760;29;20078;-64
2022/12/03 09:48:54;;;;;;;37.38;31.20;;;;;;;1.66;100.00;102118.09;5123997;29;20439;-63
2022/12/03 09:51:29;;;;;;;41.42;37.00;;;;;;;1.76;100.00;102118.75;5106856;29;20033;-66
2022/12/03 09:54:05;;;;;;;36.08;29.30;;;;;;;1.79;100.00;102121.06;5122814;28;20027;-64
2022/12/03 09:56:36;;;;;;;39.20;35.28;;;;;;;1.80;100.00;102120.06;5122888;29;20038;-64
2022/12/03 09:59:14;;;;;;;35.70;32.15;;;;;;;1.80;100.00;102113.91;5122854;29;20049;-65
2022/12/03 10:01:44;;;;;;;35.03;31.38;;;;;;;1.79;100.00;102114.91;5121882;29;20090;-65
2022/12/03 10:04:15;;;;;;;38.45;30.08;;;;;;;1.61;100.00;102088.47;5122914;28;20023;-64
2022/12/03 10:06:46;;;;;;;36.42;32.97;;;;;;;1.83;100.00;102113.59;5122935;29;20440;-64
2022/12/03 10:09:24;;;;;;;33.20;29.92;;;;;;;1.83;100.00;102109.09;5123015;29;20032;-64
2022/12/03 10:11:57;;;;;;;43.13;36.80;;;;;;;1.90;100.00;102107.44;5122382;29;20031;-64
2022/12/03 10:14:29;;;;;;;39.67;35.40;;;;;;;1.93;100.00;102100.94;5122170;28;20373;-66
2022/12/03 10:16:59;;;;;;;31.42;28.63;;;;;;;1.97;100.00;102097.78;5122761;29;20035;-65
2022/12/03 10:19:32;;;;;;;36.70;32.88;;;;;;;2.02;100.00;102092.75;5122802;29;20403;-65
2022/12/03 10:22:03;;;;;;;34.70;30.50;;;;;;;2.01;100.00;102091.09;5122002;29;20073;-64
2022/12/03 10:24:35;;;;;;;38.00;32.65;;;;;;;2.03;100.00;102086.41;5122668;28;20027;-63
2022/12/03 10:27:28;;;;;;;36.05;30.30;;;;;;;2.02;100.00;102084.75;5122565;29;20058;-64
2022/12/03 10:30:01;;;;;;;33.33;30.05;;;;;;;1.93;100.00;102083.13;5122718;29;20027;-63
2022/12/03 10:32:40;;;;;;;37.40;32.55;;;;;;;1.89;100.00;102075.63;5121919;29;20019;-64
2022/12/03 10:35:14;;;;;;;34.95;30.48;;;;;;;1.84;100.00;102081.47;5123218;29;20496;-64
2022/12/03 10:38:23;;;;;;;32.17;29.40;;;;;;;1.81;100.00;102076.47;5123515;29;20547;-66
2022/12/03 10:40:54;;;;;;;34.45;28.92;;;;;;;1.78;100.00;102082.13;5042847;29;20041;-65
2022/12/03 10:43:24;;;;;;;36.60;32.53;;;;;;;1.76;100.00;102067.31;5111171;28;20492;-65
2022/12/03 10:45:57;;;;;;;33.33;29.88;;;;;;;1.76;100.00;102068.16;5122503;29;20034;-65
2022/12/03 10:48:28;;;;;;;35.53;31.98;;;;;;;1.77;100.00;102051.16;5122958;29;20035;-65
2022/12/03 10:51:05;;;;;;;30.15;27.17;;;;;;;1.82;100.00;102054.16;5122831;29;20035;-64
2022/12/03 10:53:39;;;;;;;30.40;27.48;;;;;;;1.76;100.00;102044.19;5121878;28;20027;-65
2022/12/03 10:56:19;;;;;;;33.88;29.80;;;;;;;1.78;100.00;102052.00;5122253;29;20031;-65
2022/12/03 10:58:50;;;;;;;30.20;27.15;;;;;;;1.69;100.00;102045.88;5123157;29;20120;-64
2022/12/03 11:01:23;;;;;;;31.98;28.95;;;;;;;1.77;100.00;102045.84;5122514;29;20031;-65
2022/12/03 11:04:01;;;;;;;31.25;27.15;;;;;;;1.67;100.00;102039.88;5121680;28;20529;-64
2022/12/03 11:06:31;;;;;;;32.00;27.77;;;;;;;1.73;100.00;102038.38;5122366;29;20023;-65
2022/12/03 11:09:03;;;;;;;31.38;28.02;;;;;;;1.78;100.00;102038.69;5122322;29;20377;-64
2022/12/03 11:11:34;;;;;;;32.42;29.23;;;;;;;1.78;100.00;102036.03;5122309;28;20463;-64
2022/12/03 11:14:04;;;;;;;30.08;26.88;;;;;;;1.74;100.00;102019.56;5107567;29;20062;-64
2022/12/03 11:16:38;;;;;;;35.45;27.77;;;;;;;1.89;100.00;102038.34;5108532;29;20514;-66
2022/12/03 11:19:11;;;;;;;33.03;28.17;;;;;;;1.88;100.00;102031.34;5125840;29;20487;-64
2022/12/03 11:22:08;;;;;;;28.25;25.48;;;;;;;1.83;100.00;102036.34;5125761;29;20487;-66
2022/12/03 11:24:39;;;;;;;29.73;26.77;;;;;;;1.79;100.00;102030.53;5125523;28;20027;-65
2022/12/03 11:27:09;;;;;;;32.58;29.65;;;;;;;1.84;100.00;102024.69;5125595;29;20045;-66
2022/12/03 11:29:54;;;;;;;32.40;28.83;;;;;;;1.89;100.00;102025.03;5125587;29;20026;-66
2022/12/03 11:32:53;;;;;;;32.25;28.73;;;;;;;1.90;100.00;102026.69;5125110;29;20031;-65
2022/12/03 11:35:24;;;;;;;30.13;26.27;;;;;;;1.88;100.00;102023.34;5125574;29;20034;-66
2022/12/03 11:38:33;;;;;;;35.80;28.65;;;;;;;1.87;100.00;102019.03;5125250;29;20031;-64
2022/12/03 11:41:32;;;;;;;30.60;26.75;;;;;;;1.83;100.00;102012.38;5125110;29;20054;-64
2022/12/03 11:44:28;;;;;;;29.02;22.30;;;;;;;1.79;100.00;102009.22;5124779;28;20058;-65
2022/12/03 11:47:07;;;;;;;31.92;28.58;;;;;;;1.76;100.00;101998.91;5114212;29;20486;-64
2022/12/03 11:49:45;;;;;;;32.42;28.85;;;;;;;1.84;100.00;102006.88;5108136;29;20102;-65
2022/12/03 11:52:42;;;;;;;31.45;28.38;;;;;;;1.90;100.00;101997.38;5124655;29;20468;-66
2022/12/03 11:55:32;;;;;;;35.10;28.88;;;;;;;1.94;100.00;101999.53;5114656;29;20046;-65
2022/12/03 11:58:22;;;;;;;32.67;27.40;;;;;;;1.98;100.00;101989.38;5124643;29;20047;-65